createdAt,value
2018-04-06T00:05:08.000Z,16.6
2018-04-06T00:15:08.000Z,16.6
2018-04-06T00:25:08.000Z,16.4
2018-04-06T00:35:08.000Z,16.3
2018-04-06T00:45:08.000Z,16.2
2018-04-06T00:55:08.000Z,16.1
2018-04-06T01:05:08.000Z,16
2018-04-06T01:15:08.000Z,16.1
2018-04-06T01:25:08.000Z,15.9
2018-04-06T01:35:09.000Z,15.8
2018-04-06T01:45:08.000Z,15.6
2018-04-06T01:55:08.000Z,15.7
2018-04-06T02:05:08.000Z,15.5
2018-04-06T02:15:08.000Z,15.5
2018-04-06T02:25:09.000Z,15.5
2018-04-06T02:35:09.000Z,15.3
2018-04-06T02:45:09.000Z,15.2
2018-04-06T02:55:09.000Z,15.1
2018-04-06T03:05:09.000Z,15.1
2018-04-06T03:15:09.000Z,15
2018-04-06T03:25:09.000Z,15.1
2018-04-06T03:35:09.000Z,15.2
2018-04-06T03:45:09.000Z,15.3
2018-04-06T03:55:09.000Z,15
2018-04-06T04:05:09.000Z,14.9
2018-04-06T04:15:09.000Z,14.6
2018-04-06T04:25:09.000Z,14.7
2018-04-06T04:35:09.000Z,14.7
2018-04-06T04:45:09.000Z,14.7
2018-04-06T04:55:09.000Z,14.7
2018-04-06T05:05:09.000Z,14.7
2018-04-06T05:15:09.000Z,14.5
2018-04-06T05:25:09.000Z,14.5
2018-04-06T05:35:09.000Z,14.3
2018-04-06T05:45:09.000Z,14.3
2018-04-06T05:55:09.000Z,14.4
2018-04-06T06:05:09.000Z,14.2
2018-04-06T06:15:09.000Z,14.4
2018-04-06T06:25:09.000Z,14.8
2018-04-06T06:35:09.000Z,14.9
2018-04-06T06:45:09.000Z,15.3
2018-04-06T06:55:09.000Z,15
2018-04-06T07:05:09.000Z,15.3
2018-04-06T07:15:09.000Z,15.2
2018-04-06T07:25:09.000Z,15.5
2018-04-06T07:35:09.000Z,15.6
2018-04-06T07:45:09.000Z,15.8
2018-04-06T07:55:09.000Z,15.9
2018-04-06T08:05:09.000Z,16.1
2018-04-06T08:15:09.000Z,16.4
2018-04-06T08:25:09.000Z,16.7
2018-04-06T08:35:09.000Z,16.7
2018-04-06T08:45:09.000Z,16.9
2018-04-06T08:55:09.000Z,17.4
2018-04-06T09:05:09.000Z,18.3
2018-04-06T09:15:09.000Z,18.6
2018-04-06T09:25:09.000Z,18.8
2018-04-06T09:35:09.000Z,18.9
2018-04-06T09:45:10.000Z,18.9
2018-04-06T09:55:10.000Z,19.2
2018-04-06T10:05:10.000Z,19.3
2018-04-06T10:15:10.000Z,19.5
2018-04-06T10:25:10.000Z,19.3
2018-04-06T10:35:10.000Z,19.5
2018-04-06T10:45:10.000Z,19.5
2018-04-06T10:55:10.000Z,19.6
2018-04-06T11:05:10.000Z,19.6
2018-04-06T11:15:10.000Z,19.7
2018-04-06T11:25:10.000Z,19.7
2018-04-06T11:35:10.000Z,19.6
2018-04-06T11:45:10.000Z,19.7
2018-04-06T11:55:10.000Z,19.6
2018-04-06T12:05:10.000Z,19.8
2018-04-06T12:15:10.000Z,19.8
2018-04-06T12:25:11.000Z,19.8
2018-04-06T12:35:10.000Z,19.9
2018-04-06T12:45:10.000Z,19.9
2018-04-06T12:55:10.000Z,19.9
2018-04-06T13:05:10.000Z,20
2018-04-06T13:15:10.000Z,20.1
2018-04-06T13:25:10.000Z,19.9
2018-04-06T13:35:10.000Z,20
2018-04-06T13:45:10.000Z,20
2018-04-06T13:55:10.000Z,20.1
2018-04-06T14:05:10.000Z,20
2018-04-06T14:15:10.000Z,20.2
2018-04-06T14:25:10.000Z,20.2
2018-04-06T14:35:10.000Z,20.3
2018-04-06T14:45:10.000Z,20.3
2018-04-06T14:55:10.000Z,20.3
2018-04-06T15:05:10.000Z,20.3
2018-04-06T15:15:11.000Z,20.4
2018-04-06T15:25:10.000Z,20.5
2018-04-06T15:35:10.000Z,20.5
2018-04-06T15:45:10.000Z,20.4
2018-04-06T15:55:10.000Z,20.5
2018-04-06T16:05:10.000Z,20.5
2018-04-06T16:15:10.000Z,20.7
2018-04-06T16:25:10.000Z,20.8
2018-04-06T16:35:10.000Z,20.6
2018-04-06T16:45:11.000Z,20.6
2018-04-06T16:55:11.000Z,20.6
2018-04-06T17:05:11.000Z,20.7
2018-04-06T17:15:11.000Z,20.9
2018-04-06T17:25:11.000Z,20.7
2018-04-06T17:35:11.000Z,20.6
2018-04-06T17:45:11.000Z,20.6
2018-04-06T17:55:11.000Z,20.6
2018-04-06T18:05:11.000Z,20.6
2018-04-06T18:15:11.000Z,20.6
2018-04-06T18:25:11.000Z,20.5
2018-04-06T18:35:11.000Z,20.6
2018-04-06T18:45:11.000Z,20.6
2018-04-06T18:55:11.000Z,20.6
2018-04-06T19:05:11.000Z,20.6
2018-04-06T19:15:11.000Z,20.6
2018-04-06T19:25:11.000Z,20.7
2018-04-06T19:35:11.000Z,20.7
2018-04-06T19:45:11.000Z,20.7
2018-04-06T19:55:11.000Z,20.7
2018-04-06T20:05:11.000Z,20.7
2018-04-06T20:15:12.000Z,20.7
2018-04-06T20:25:11.000Z,20.7
2018-04-06T20:35:12.000Z,20.6
2018-04-06T20:45:11.000Z,20.8
2018-04-06T20:55:11.000Z,20.7
2018-04-06T21:05:11.000Z,20.6
2018-04-06T21:15:11.000Z,20.6
2018-04-06T21:25:11.000Z,20.6
2018-04-06T21:35:11.000Z,20.6
2018-04-06T21:45:11.000Z,19.9
2018-04-06T21:55:11.000Z,19.5
2018-04-06T22:05:11.000Z,19.1
2018-04-06T22:15:11.000Z,18.7
2018-04-06T22:25:13.000Z,18.7
2018-04-06T22:35:11.000Z,18.5
2018-04-06T22:45:11.000Z,18.5
2018-04-06T22:55:11.000Z,18.4
2018-04-06T23:05:13.000Z,18.2
2018-04-06T23:15:13.000Z,18.2
2018-04-06T23:25:13.000Z,18.1
2018-04-06T23:35:11.000Z,18.1
2018-04-06T23:45:12.000Z,17.8
2018-04-06T23:55:12.000Z,17.9
